Time;durP1;ratioP1;P1;durP2;ratioP2;P2;SDS_P1;SDS_P2;PMS_P1;PMS_P2;Temp;Humidity;BMP_temperature;BMP_pressure;BME280_temperature;BME280_humidity;BME280_pressure;Samples;Min_cycle;Max_cycle;Signal;HPM_P1;HPM_P2
2021/12/01 00:01:44;;;;;;;5.47;3.57;;;;;;;2.06;100.00;99146.80;5041937;58;1134964;-81
2021/12/01 00:06:50;;;;;;;3.50;2.20;;;;;;;2.04;100.00;99157.80;5041919;58;1134931;-79
2021/12/01 00:11:56;;;;;;;3.33;2.50;;;;;;;2.03;100.00;99165.24;5041979;58;1135165;-78
2021/12/01 00:17:01;;;;;;;5.77;3.10;;;;;;;2.04;100.00;99176.05;5066570;57;1134927;-81
2021/12/01 00:22:08;;;;;;;5.57;3.13;;;;;;;2.06;100.00;99191.59;5120405;57;1135027;-76
2021/12/01 00:27:13;;;;;;;3.80;2.67;;;;;;;2.06;100.00;99212.45;5120562;57;1135167;-81
2021/12/01 00:32:20;;;;;;;6.27;3.27;;;;;;;2.06;100.00;99212.45;5120433;57;1134897;-79
2021/12/01 00:37:26;;;;;;;4.93;2.50;;;;;;;2.08;100.00;99214.04;5120439;57;1134840;-78
2021/12/01 00:42:32;;;;;;;4.47;2.13;;;;;;;2.05;100.00;99232.48;5120471;57;1135167;-79
2021/12/01 00:47:44;;;;;;;3.60;2.97;;;;;;;2.02;100.00;99232.67;5120393;57;1134893;-81
2021/12/01 00:52:49;;;;;;;3.47;2.50;;;;;;;2.01;100.00;99241.42;5120507;57;1135157;-81
2021/12/01 00:57:56;;;;;;;3.20;2.23;;;;;;;2.01;100.00;99249.25;5120406;57;1135002;-78
2021/12/01 01:03:01;;;;;;;3.50;2.73;;;;;;;2.02;100.00;99259.20;5129271;57;1135381;-78
2021/12/01 01:08:09;;;;;;;2.10;2.00;;;;;;;2.02;100.00;99264.42;5129326;57;1134892;-80
2021/12/01 01:18:46;;;;;;;3.57;2.07;;;;;;;2.01;100.00;99293.58;5132381;57;1132816;-76
2021/12/01 01:23:52;;;;;;;4.37;2.73;;;;;;;2.01;100.00;99292.73;5133618;57;1132718;-84
2021/12/01 01:28:57;;;;;;;4.37;2.83;;;;;;;2.08;100.00;99284.92;5133930;57;1133172;-80
2021/12/01 01:34:04;;;;;;;6.13;3.93;;;;;;;2.19;100.00;99288.14;5134370;57;1132788;-77
2021/12/01 01:39:10;;;;;;;4.73;2.70;;;;;;;2.14;100.00;99284.52;5134407;57;1132831;-82
2021/12/01 01:44:16;;;;;;;3.95;2.62;;;;;;;2.08;100.00;99290.97;5128496;57;1132817;-81
2021/12/01 01:49:34;;;;;;;2.57;2.00;;;;;;;1.97;100.00;99306.45;5123954;57;1133060;-80
2021/12/01 01:54:29;;;;;;;4.70;2.67;;;;;;;1.82;100.00;99304.79;5121428;57;1132853;-81
2021/12/01 01:59:35;;;;;;;3.90;2.80;;;;;;;1.73;100.00;99310.08;5123905;57;1132825;-76
2021/12/01 02:04:41;;;;;;;3.03;2.23;;;;;;;1.62;100.00;99317.72;5123903;57;1133026;-81
2021/12/01 02:09:47;;;;;;;4.63;2.97;;;;;;;1.54;100.00;99334.25;5123961;57;1133006;-79
2021/12/01 02:14:53;;;;;;;4.63;3.50;;;;;;;1.48;100.00;99344.22;5123837;57;1132710;-81
2021/12/01 02:19:59;;;;;;;6.47;3.33;;;;;;;1.44;100.00;99341.41;5119791;57;1130672;-80
2021/12/01 02:25:04;;;;;;;3.27;2.20;;;;;;;1.39;100.00;99348.19;5119300;57;1130948;-82
2021/12/01 02:30:10;;;;;;;4.07;2.50;;;;;;;1.35;100.00;99345.41;5139226;57;21177;-78
2021/12/01 02:35:17;;;;;;;3.10;2.17;;;;;;;1.31;100.00;99341.30;5084818;57;1130803;-77
2021/12/01 02:40:23;;;;;;;1.83;1.73;;;;;;;1.26;100.00;99343.33;5119355;57;1134939;-83
2021/12/01 02:45:29;;;;;;;7.50;2.10;;;;;;;1.27;100.00;99354.12;5119427;57;1135122;-79
2021/12/01 02:50:37;;;;;;;2.13;1.43;;;;;;;1.26;100.00;99346.77;5120475;57;1134846;-81
2021/12/01 02:56:02;;;;;;;2.27;1.73;;;;;;;1.25;100.00;99355.50;5131334;57;1134839;-81
2021/12/01 03:01:11;;;;;;;3.50;1.80;;;;;;;1.26;100.00;99354.58;5131459;57;1135045;-80
2021/12/01 03:06:21;;;;;;;2.43;1.77;;;;;;;1.28;100.00;99349.29;5131447;57;1134848;-77
2021/12/01 03:11:27;;;;;;;4.27;1.20;;;;;;;1.28;100.00;99355.80;5131403;57;1134399;-81
2021/12/01 03:16:35;;;;;;;3.13;1.90;;;;;;;1.29;100.00;99361.38;5132243;57;1135136;-82
2021/12/01 03:21:43;;;;;;;1.70;1.20;;;;;;;1.27;100.00;99360.63;5135667;57;1135095;-84
2021/12/01 03:26:49;;;;;;;1.67;1.00;;;;;;;1.24;100.00;99355.13;5136315;57;1134838;-79
2021/12/01 03:31:55;;;;;;;3.30;1.53;;;;;;;1.24;100.00;99355.13;5135808;57;1134860;-80
2021/12/01 03:37:00;;;;;;;6.00;2.97;;;;;;;1.25;100.00;99336.44;5135623;57;1134834;-82
2021/12/01 03:42:07;;;;;;;10.87;4.40;;;;;;;1.25;100.00;99336.44;5104846;57;1134834;-81
2021/12/01 03:47:12;;;;;;;7.00;2.80;;;;;;;1.23;100.00;99322.20;5135675;57;1136881;-83
2021/12/01 03:52:19;;;;;;;4.33;3.37;;;;;;;1.26;100.00;99325.94;5135490;57;1135151;-78
2021/12/01 03:57:25;;;;;;;3.70;2.73;;;;;;;1.27;100.00;99313.75;5129208;57;1134937;-82
2021/12/01 04:02:32;;;;;;;4.13;2.73;;;;;;;1.33;100.00;99311.64;5130342;57;1134931;-77
2021/12/01 04:07:39;;;;;;;6.07;3.33;;;;;;;1.37;100.00;99311.00;5146309;57;1134831;-77
2021/12/01 04:12:45;;;;;;;2.83;2.30;;;;;;;1.37;100.00;99319.66;5146122;57;1134796;-87
2021/12/01 04:17:51;;;;;;;4.47;2.53;;;;;;;1.35;100.00;99316.30;5144072;57;1135035;-82
2021/12/01 04:22:56;;;;;;;9.50;4.30;;;;;;;1.33;100.00;99319.45;5141745;57;1134891;-86
2021/12/01 04:28:02;;;;;;;11.20;3.77;;;;;;;1.33;100.00;99335.08;5141574;57;1134967;-80
2021/12/01 04:33:08;;;;;;;5.57;3.00;;;;;;;1.38;100.00;99323.06;5141772;57;1137394;-79
2021/12/01 04:38:14;;;;;;;7.67;3.43;;;;;;;1.38;100.00;99323.06;5111259;57;1135208;-80
2021/12/01 04:43:20;;;;;;;5.93;3.07;;;;;;;1.42;100.00;99318.05;5141617;57;1135155;-78
2021/12/01 04:48:30;;;;;;;9.33;3.60;;;;;;;1.44;100.00;99310.15;5141902;57;1134919;-79
2021/12/01 04:53:35;;;;;;;7.70;3.00;;;;;;;1.45;100.00;99306.16;5137844;57;1135239;-83
2021/12/01 04:58:41;;;;;;;7.43;4.33;;;;;;;1.48;100.00;99315.09;5129734;57;1135169;-80
2021/12/01 05:03:47;;;;;;;3.07;2.77;;;;;;;1.49;100.00;99301.14;5129624;57;1135153;-80
2021/12/01 05:08:53;;;;;;;6.37;3.60;;;;;;;1.54;100.00;99287.82;5129693;57;1134934;-81
2021/12/01 05:13:59;;;;;;;12.47;5.87;;;;;;;1.58;100.00;99288.85;5129614;57;1135084;-81
2021/12/01 05:19:06;;;;;;;4.77;3.23;;;;;;;1.56;100.00;99286.80;5132799;57;1134905;-82
2021/12/01 05:24:13;;;;;;;4.33;3.00;;;;;;;1.60;100.00;99281.78;5134288;57;1132733;-80
2021/12/01 05:29:20;;;;;;;7.23;3.60;;;;;;;1.60;100.00;99281.78;5134147;57;1132786;-82
2021/12/01 05:34:27;;;;;;;9.27;2.23;;;;;;;1.60;100.00;99273.97;5134204;57;1133123;-78
2021/12/01 05:39:33;;;;;;;5.87;3.17;;;;;;;1.63;100.00;99274.25;5134251;57;1133372;-85
2021/12/01 05:44:39;;;;;;;3.03;2.57;;;;;;;1.62;100.00;99277.78;5134243;57;1133028;-78
2021/12/01 05:49:45;;;;;;;5.33;2.50;;;;;;;1.63;100.00;99268.58;5134104;57;1132811;-85
2021/12/01 05:54:51;;;;;;;1.60;1.50;;;;;;;1.63;100.00;99259.45;5134018;57;1132679;-79
2021/12/01 05:59:59;;;;;;;6.90;3.33;;;;;;;1.61;100.00;99246.14;5134169;57;1132799;-82
2021/12/01 06:05:06;;;;;;;1.82;1.70;;;;;;;1.62;100.00;99247.36;5133970;57;1132813;-84
2021/12/01 06:10:12;;;;;;;6.10;3.00;;;;;;;1.65;100.00;99252.39;5134397;57;1133037;-80
2021/12/01 06:15:20;;;;;;;6.77;3.87;;;;;;;1.65;100.00;99245.03;5134365;57;1132772;-81
2021/12/01 06:20:27;;;;;;;6.63;3.17;;;;;;;1.66;100.00;99248.02;5130187;57;1133043;-84
2021/12/01 06:25:33;;;;;;;10.20;5.60;;;;;;;1.66;100.00;99247.55;5130204;57;1133018;-78
2021/12/01 06:30:39;;;;;;;17.83;6.17;;;;;;;1.65;100.00;99246.34;5130213;57;1134935;-81
2021/12/01 06:35:49;;;;;;;5.90;3.63;;;;;;;1.61;100.00;99240.47;5130145;57;1135206;-82
2021/12/01 06:40:52;;;;;;;7.50;4.10;;;;;;;1.61;100.00;99239.63;5130117;57;1130727;-81
2021/12/01 06:45:58;;;;;;;4.30;3.40;;;;;;;1.60;100.00;99238.79;5109054;57;1131011;-80
2021/12/01 06:51:04;;;;;;;7.43;4.53;;;;;;;1.58;100.00;99223.71;5035722;57;1134655;-81
2021/12/01 06:56:11;;;;;;;7.63;4.97;;;;;;;1.55;100.00;99208.72;4978218;57;1134883;-78
2021/12/01 07:01:16;;;;;;;11.27;7.20;;;;;;;1.55;100.00;99208.27;5063292;57;1134861;-78
2021/12/01 07:06:22;;;;;;;6.83;4.80;;;;;;;1.54;100.00;99209.19;5063175;57;1137233;-84
2021/12/01 07:11:29;;;;;;;14.97;6.80;;;;;;;1.47;100.00;99203.16;5061796;57;1135162;-78
2021/12/01 07:16:35;;;;;;;15.67;7.53;;;;;;;1.50;100.00;99201.67;5080081;57;1136977;-83
2021/12/01 07:21:41;;;;;;;11.17;5.67;;;;;;;1.48;100.00;99197.02;5140660;57;1136989;-80
2021/12/01 07:26:46;;;;;;;18.37;7.70;;;;;;;1.45;100.00;99202.41;5141369;57;1137081;-76
2021/12/01 07:31:53;;;;;;;52.25;13.13;;;;;;;1.50;100.00;99183.44;5135741;57;1137091;-75
2021/12/01 07:36:59;;;;;;;62.53;26.07;;;;;;;1.46;100.00;99169.76;5130475;57;1139074;-81
2021/12/01 07:42:06;;;;;;;21.30;11.30;;;;;;;1.47;100.00;99160.17;5130289;57;1139144;-82
2021/12/01 07:47:12;;;;;;;13.57;8.70;;;;;;;1.46;100.00;99148.08;5130631;57;1139652;-75
2021/12/01 07:52:18;;;;;;;14.43;9.73;;;;;;;1.51;100.00;99131.24;5130678;57;1137247;-85
2021/12/01 07:57:24;;;;;;;18.40;10.93;;;;;;;1.52;100.00;99113.84;5123920;57;1137095;-80
2021/12/01 08:02:29;;;;;;;20.30;8.80;;;;;;;1.54;100.00;99104.13;5118834;57;1139457;-81
2021/12/01 08:07:38;;;;;;;13.20;7.03;;;;;;;1.59;100.00;99095.10;5121103;57;1136934;-80
2021/12/01 08:12:44;;;;;;;17.03;10.90;;;;;;;1.61;100.00;99084.58;5120328;57;1136478;-81
2021/12/01 08:17:51;;;;;;;16.13;11.23;;;;;;;1.64;100.00;99092.22;5121851;57;1139384;-80
2021/12/01 08:22:57;;;;;;;21.63;11.27;;;;;;;1.61;100.00;99080.67;5125009;57;1139274;-79
2021/12/01 08:28:03;;;;;;;10.85;5.67;;;;;;;1.63;100.00;99093.98;5125183;57;1139014;-80
2021/12/01 08:33:09;;;;;;;18.93;9.63;;;;;;;1.65;100.00;99087.37;5123879;57;1136830;-80
2021/12/01 08:38:15;;;;;;;41.18;8.83;;;;;;;1.63;100.00;99064.02;5123935;57;1137174;-80
2021/12/01 08:43:21;;;;;;;11.77;6.33;;;;;;;1.61;100.00;99062.44;5124499;57;1137310;-80
2021/12/01 08:48:26;;;;;;;7.40;4.20;;;;;;;1.65;100.00;99053.03;5125249;57;1137306;-79
2021/12/01 08:53:35;;;;;;;10.07;5.17;;;;;;;1.66;100.00;99050.80;5124154;57;1135304;-80
2021/12/01 08:58:41;;;;;;;13.67;5.37;;;;;;;1.67;100.00;99045.12;5131882;57;1136998;-79
2021/12/01 09:03:46;;;;;;;10.53;5.17;;;;;;;1.65;100.00;99040.47;5136791;57;1136796;-80
2021/12/01 09:08:52;;;;;;;13.20;6.60;;;;;;;1.60;100.00;99030.80;5136707;57;1136893;-80
2021/12/01 09:13:58;;;;;;;5.20;3.37;;;;;;;1.54;100.00;99019.45;5137406;57;1136950;-80
2021/12/01 09:19:04;;;;;;;11.70;3.63;;;;;;;1.53;100.00;99011.30;5134541;57;1135411;-79
2021/12/01 09:24:10;;;;;;;9.00;4.10;;;;;;;1.53;100.00;99000.38;5133272;57;1136891;-81
2021/12/01 09:29:16;;;;;;;9.43;4.63;;;;;;;1.48;100.00;98989.45;5133151;57;1134933;-80
2021/12/01 09:34:22;;;;;;;15.67;6.00;;;;;;;1.45;100.00;98977.91;5133073;57;1135075;-81
2021/12/01 09:39:28;;;;;;;17.70;9.08;;;;;;;1.46;100.00;98958.75;5132527;57;1136977;-81
2021/12/01 09:44:34;;;;;;;9.63;4.25;;;;;;;1.45;100.00;98950.56;5132550;57;1136935;-81
2021/12/01 09:49:40;;;;;;;9.03;5.83;;;;;;;1.44;100.00;98936.33;5132621;57;1135287;-81
2021/12/01 09:54:48;;;;;;;6.63;3.47;;;;;;;1.45;100.00;98926.28;5133339;57;1135227;-81
2021/12/01 09:59:53;;;;;;;10.60;4.53;;;;;;;1.47;100.00;98921.81;5125309;57;1135099;-81
2021/12/01 10:04:59;;;;;;;15.53;5.97;;;;;;;1.48;100.00;98914.37;5120398;57;1136890;-80
2021/12/01 10:10:13;;;;;;;13.67;7.07;;;;;;;1.48;100.00;98898.27;5120339;57;1134954;-81
2021/12/01 10:15:31;;;;;;;67.33;27.73;;;;;;;1.49;100.00;98883.47;5120485;57;1134861;-83
2021/12/01 10:20:37;;;;;;;27.93;15.77;;;;;;;1.51;100.00;98872.02;5036442;58;1136928;-80
2021/12/01 10:25:43;;;;;;;19.07;8.50;;;;;;;1.57;100.00;98855.95;5038046;58;1137387;-81
2021/12/01 10:30:49;;;;;;;20.17;7.73;;;;;;;1.58;100.00;98845.06;5038315;58;1135449;-81
2021/12/01 10:35:55;;;;;;;19.43;6.70;;;;;;;1.59;100.00;98835.84;5038511;58;1135143;-81
2021/12/01 10:41:10;;;;;;;14.70;6.73;;;;;;;1.60;100.00;98826.26;5037919;58;1134905;-80
2021/12/01 10:46:20;;;;;;;13.63;5.00;;;;;;;1.58;100.00;98814.64;5038600;58;1134870;-80
2021/12/01 10:51:37;;;;;;;9.30;5.57;;;;;;;1.60;100.00;98806.72;5038100;58;1134958;-81
2021/12/01 10:56:42;;;;;;;9.77;5.03;;;;;;;1.58;100.00;98785.14;5045412;58;1130940;-81
2021/12/01 11:01:48;;;;;;;15.47;7.17;;;;;;;1.59;100.00;98775.09;5055281;58;1131255;-81
2021/12/01 11:06:54;;;;;;;9.10;5.43;;;;;;;1.59;100.00;98762.89;5076430;58;21165;-81
2021/12/01 11:12:02;;;;;;;11.03;5.73;;;;;;;1.61;100.00;98740.17;5058020;58;1130602;-81
2021/12/01 11:17:10;;;;;;;12.97;6.97;;;;;;;1.62;100.00;98727.52;5056225;57;1137254;-83
2021/12/01 11:22:36;;;;;;;11.70;7.73;;;;;;;1.62;100.00;98711.05;5141753;57;1137014;-83
2021/12/01 11:27:37;;;;;;;8.58;5.05;;;;;;;1.63;100.00;98700.52;5141559;57;1136989;-78
2021/12/01 11:32:42;;;;;;;10.57;5.33;;;;;;;1.65;100.00;98681.71;5140782;57;1134857;-82
2021/12/01 11:37:57;;;;;;;15.80;5.00;;;;;;;1.72;100.00;98663.85;5141538;57;1136971;-79
2021/12/01 11:43:03;;;;;;;244.70;83.17;;;;;;;1.75;100.00;98657.95;5140312;57;1137006;-86
2021/12/01 11:48:16;;;;;;;28.67;12.97;;;;;;;1.81;100.00;98646.74;5131244;57;1141111;-78
2021/12/01 11:53:32;;;;;;;13.20;6.35;;;;;;;1.89;100.00;98633.50;5131607;57;1139328;-76
2021/12/01 11:59:03;;;;;;;18.53;8.17;;;;;;;1.93;100.00;98614.58;5130842;57;1136957;-85
2021/12/01 12:04:15;;;;;;;25.43;10.53;;;;;;;1.97;100.00;98601.21;5119897;57;1136944;-83
2021/12/01 12:09:23;;;;;;;22.07;9.47;;;;;;;2.00;100.00;98592.31;5119487;57;1139409;-82
2021/12/01 12:14:37;;;;;;;15.27;8.20;;;;;;;2.04;100.00;98548.96;5119667;57;1137112;-83
2021/12/01 12:20:02;;;;;;;22.27;9.93;;;;;;;2.11;100.00;98560.61;5123291;57;1136955;-83
2021/12/01 12:25:12;;;;;;;20.08;10.55;;;;;;;2.16;100.00;98548.52;5124449;57;1136923;-82
2021/12/01 12:30:37;;;;;;;18.47;9.87;;;;;;;2.24;100.00;98529.70;5114495;57;1139097;-86
2021/12/01 12:35:49;;;;;;;21.60;11.40;;;;;;;2.31;100.00;98518.67;5121974;57;1134881;-86
2021/12/01 12:41:14;;;;;;;30.65;13.80;;;;;;;2.33;100.00;98505.05;5125220;57;1136903;-86
2021/12/01 12:46:21;;;;;;;34.53;12.70;;;;;;;2.40;100.00;98494.52;5125357;57;1137195;-85
2021/12/01 12:51:32;;;;;;;34.13;15.10;;;;;;;2.45;100.00;98483.23;5124744;57;1138985;-85
2021/12/01 12:56:49;;;;;;;17.90;10.00;;;;;;;2.52;100.00;98460.59;5124546;57;1136993;-86
2021/12/01 13:01:59;;;;;;;74.83;22.60;;;;;;;2.53;100.00;98463.09;5130597;57;1136964;-85
2021/12/01 13:07:32;;;;;;;24.63;12.60;;;;;;;2.58;100.00;98449.70;5128351;57;1137047;-85
2021/12/01 13:13:04;;;;;;;24.57;7.50;;;;;;;2.66;100.00;98449.91;5137066;57;1141104;-85
2021/12/01 13:18:22;;;;;;;22.67;8.93;;;;;;;2.68;100.00;98435.80;5132322;57;1136869;-85
2021/12/01 13:23:37;;;;;;;14.80;7.87;;;;;;;2.73;100.00;98430.23;5137191;57;1136975;-85
2021/12/01 13:29:04;;;;;;;19.53;9.10;;;;;;;2.78;100.00;98419.76;5137774;57;1137317;-85
2021/12/01 13:34:21;;;;;;;25.83;10.40;;;;;;;2.85;100.00;98416.67;5138031;57;1136978;-84
2021/12/01 13:39:33;;;;;;;37.57;11.77;;;;;;;2.89;100.00;98409.80;5137809;57;1141076;-85
2021/12/01 13:44:42;;;;;;;13.93;7.77;;;;;;;2.95;100.00;98400.14;5138195;57;1141081;-86
2021/12/01 13:50:00;;;;;;;30.50;13.23;;;;;;;3.01;100.00;98380.55;5136369;57;1139107;-86
2021/12/01 13:55:25;;;;;;;19.53;7.90;;;;;;;3.05;100.00;98371.05;5135153;57;1139044;-85
2021/12/01 14:00:39;;;;;;;23.97;8.63;;;;;;;3.09;100.00;98358.55;5130016;57;1136925;-85
2021/12/01 14:05:50;;;;;;;17.50;8.13;;;;;;;3.15;100.00;98338.00;5045534;57;1139155;-85
2021/12/01 14:11:29;;;;;;;26.13;13.50;;;;;;;3.21;100.00;98331.42;5050490;57;1134753;-85
2021/12/01 14:16:32;;;;;;;23.23;12.10;;;;;;;3.27;100.00;98311.81;5050209;57;1139046;-84
2021/12/01 14:21:38;;;;;;;36.97;10.83;;;;;;;3.34;100.00;98304.66;5050131;57;1139040;-85
2021/12/01 14:26:58;;;;;;;16.97;9.00;;;;;;;3.42;100.00;98290.95;5050561;57;1139221;-86
2021/12/01 14:32:09;;;;;;;17.83;8.53;;;;;;;3.46;100.00;98275.37;5049812;57;1134846;-85
2021/12/01 14:37:17;;;;;;;19.37;10.17;;;;;;;3.53;100.00;98262.95;5049972;57;1136958;-86
2021/12/01 14:42:24;;;;;;;19.60;10.80;;;;;;;3.58;100.00;98248.66;5049108;57;1139378;-86
2021/12/01 14:47:31;;;;;;;11.47;7.67;;;;;;;3.62;100.00;98246.15;5050589;58;1136972;-84
2021/12/01 14:52:38;;;;;;;18.77;11.20;;;;;;;3.65;100.00;98231.52;5048561;57;1134856;-85
2021/12/01 14:57:57;;;;;;;18.23;9.53;;;;;;;3.70;100.00;98228.01;4970496;57;1141303;-85
2021/12/01 15:03:15;;;;;;;13.50;6.67;;;;;;;3.75;100.00;98219.30;5054570;57;1139043;-85
2021/12/01 15:08:28;;;;;;;23.10;9.00;;;;;;;3.76;100.00;98203.48;5059347;58;1136952;-86
2021/12/01 15:13:39;;;;;;;;;;;;;;;3.77;100.00;98175.08;5064794;57;1139251;-85
2021/12/01 15:18:45;;;;;;;22.63;11.33;;;;;;;3.85;100.00;98174.39;5060850;58;974578;-86
2021/12/01 15:23:58;;;;;;;22.93;9.73;;;;;;;3.90;100.00;98164.37;5056644;57;1139116;-84
2021/12/01 15:29:11;;;;;;;14.75;7.72;;;;;;;3.95;100.00;98156.13;5057356;57;1139340;-84
2021/12/01 15:34:16;;;;;;;;;;;;;;;4.00;100.00;98156.53;5061395;57;1139135;-85
2021/12/01 15:39:26;;;;;;;39.07;16.00;;;;;;;4.06;100.00;98145.05;5055450;57;974307;-86
2021/12/01 15:44:33;;;;;;;16.87;10.07;;;;;;;4.09;100.00;98143.48;4977287;59;1139205;-84
2021/12/01 15:49:43;;;;;;;5.67;4.53;;;;;;;4.15;100.00;98147.32;4968460;59;1141158;-84
2021/12/01 15:54:46;;;;;;;10.40;6.87;;;;;;;4.21;100.00;98133.70;4957794;59;1136934;-85
2021/12/01 15:59:52;;;;;;;16.30;9.27;;;;;;;4.28;100.00;98136.61;4980354;58;1138939;-84
2021/12/01 16:04:58;;;;;;;13.50;6.90;;;;;;;4.32;100.00;98130.95;5037920;57;1139518;-84
2021/12/01 16:10:04;;;;;;;18.43;10.03;;;;;;;4.38;100.00;98133.02;5118553;56;1138942;-85
2021/12/01 16:15:12;;;;;;;8.83;5.47;;;;;;;4.42;100.00;98124.42;5082100;57;1139170;-84
2021/12/01 16:20:20;;;;;;;14.77;7.90;;;;;;;4.45;100.00;98101.88;5104058;57;1137121;-83
2021/12/01 16:25:26;;;;;;;34.60;15.23;;;;;;;4.50;100.00;98094.44;5081955;57;1139031;-83
2021/12/01 16:30:33;;;;;;;39.43;12.87;;;;;;;4.55;100.00;98106.62;5097093;57;1141383;-83
2021/12/01 16:35:38;;;;;;;50.13;22.67;;;;;;;4.57;100.00;98076.73;5064835;57;1140971;-83
2021/12/01 16:40:47;;;;;;;21.43;8.63;;;;;;;4.63;100.00;98074.50;5048487;57;1139094;-83
2021/12/01 16:45:52;;;;;;;52.63;20.20;;;;;;;4.66;100.00;98067.20;5031299;58;1139189;-82
2021/12/01 16:50:58;;;;;;;25.50;11.43;;;;;;;4.69;100.00;98057.75;5033655;57;1141360;-82
2021/12/01 16:56:06;;;;;;;28.47;11.63;;;;;;;4.73;100.00;98059.13;5067627;57;1141092;-82
2021/12/01 17:01:13;;;;;;;28.63;11.27;;;;;;;4.77;100.00;98039.52;4904296;58;1141139;-82
2021/12/01 17:06:26;;;;;;;30.63;14.33;;;;;;;4.78;100.00;98033.32;4988732;59;1141421;-82
2021/12/01 17:11:27;;;;;;;38.57;15.77;;;;;;;4.80;100.00;98025.33;4962068;59;1141071;-82
2021/12/01 17:16:33;;;;;;;26.47;12.03;;;;;;;4.81;100.00;98030.42;4974868;58;1139123;-81
2021/12/01 17:21:39;;;;;;;31.00;15.93;;;;;;;4.82;100.00;98016.84;4947942;58;1139033;-82
2021/12/01 17:26:44;;;;;;;16.17;8.00;;;;;;;4.85;100.00;98020.49;4964389;59;1139039;-82
2021/12/01 17:32:03;;;;;;;10.93;6.00;;;;;;;4.88;100.00;98002.70;4987244;59;1136969;-82
2021/12/01 17:37:02;;;;;;;35.00;17.07;;;;;;;4.95;100.00;97997.69;4965081;59;1137281;-80
2021/12/01 17:42:11;;;;;;;10.97;6.53;;;;;;;5.02;100.00;97980.92;5018183;58;1139596;-83
2021/12/01 17:47:23;;;;;;;12.40;6.83;;;;;;;5.06;100.00;97979.64;4992614;59;1136902;-82
2021/12/01 17:52:30;;;;;;;13.63;7.83;;;;;;;5.09;100.00;97976.73;4979841;59;1134909;-85
2021/12/01 17:57:36;;;;;;;11.20;7.47;;;;;;;5.12;100.00;97977.76;5045529;58;1136946;-85
2021/12/01 18:02:45;;;;;;;10.60;5.93;;;;;;;5.16;100.00;97959.47;4995915;58;1137203;-84
2021/12/01 18:07:51;;;;;;;16.27;7.93;;;;;;;5.19;100.00;97956.08;4986055;58;1137178;-84
2021/12/01 18:12:57;;;;;;;9.17;5.80;;;;;;;5.23;100.00;97948.72;5045670;57;1136847;-83
2021/12/01 18:18:03;;;;;;;8.80;5.80;;;;;;;5.23;100.00;97939.55;5035837;57;1135181;-83
2021/12/01 18:23:09;;;;;;;12.97;5.67;;;;;;;5.27;100.00;97946.15;5063914;57;1134824;-84
2021/12/01 18:28:16;;;;;;;11.07;7.30;;;;;;;5.31;100.00;97942.27;5031956;58;1134813;-83
2021/12/01 18:33:22;;;;;;;16.43;8.47;;;;;;;5.33;100.00;97931.64;5009684;58;1134876;-83
2021/12/01 18:38:28;;;;;;;22.97;11.73;;;;;;;5.38;100.00;97920.20;5002618;58;1138956;-85
2021/12/01 18:43:34;;;;;;;31.43;13.83;;;;;;;5.39;100.00;97917.91;5130115;57;1141159;-83
2021/12/01 18:48:40;;;;;;;29.00;11.83;;;;;;;5.42;100.00;97919.76;5054351;58;1141151;-83
2021/12/01 18:53:47;;;;;;;12.70;6.43;;;;;;;5.45;100.00;97914.22;5047339;57;1141087;-83
2021/12/01 18:58:54;;;;;;;20.63;9.87;;;;;;;5.47;100.00;97904.41;5109645;57;1139181;-85
2021/12/01 19:04:00;;;;;;;26.33;8.20;;;;;;;5.53;100.00;97895.10;5094913;57;1139022;-84
2021/12/01 19:09:07;;;;;;;45.57;16.57;;;;;;;5.53;100.00;97902.48;5074019;57;1139402;-85
2021/12/01 19:14:15;;;;;;;25.83;10.00;;;;;;;5.57;100.00;97897.28;5042921;57;1141041;-85
2021/12/01 19:19:21;;;;;;;24.87;9.80;;;;;;;5.59;100.00;97897.13;5080709;57;1141100;-85
2021/12/01 19:24:27;;;;;;;14.40;7.55;;;;;;;5.62;100.00;97867.51;5025448;57;1139205;-83
2021/12/01 19:29:32;;;;;;;18.37;8.63;;;;;;;5.65;100.00;97890.77;5048918;57;1138953;-84
2021/12/01 19:34:38;;;;;;;12.07;7.50;;;;;;;5.70;100.00;97881.63;5046296;57;1139050;-83
2021/12/01 19:39:44;;;;;;;19.90;9.70;;;;;;;5.72;100.00;97871.33;5020330;57;1139208;-84
2021/12/01 19:44:56;;;;;;;13.27;6.73;;;;;;;5.73;100.00;97870.84;5079672;57;1139446;-85
2021/12/01 19:49:59;;;;;;;21.90;9.57;;;;;;;5.77;100.00;97856.46;5056306;57;1139058;-84
2021/12/01 19:55:08;;;;;;;22.20;8.27;;;;;;;5.84;100.00;97846.98;5070732;56;1138954;-85
2021/12/01 20:00:20;;;;;;;11.57;5.90;;;;;;;5.89;100.00;97834.27;5056124;57;1138979;-85
2021/12/01 20:05:29;;;;;;;13.73;7.63;;;;;;;5.97;100.00;97840.38;5049226;57;1139031;-79
2021/12/01 20:10:36;;;;;;;18.87;6.77;;;;;;;6.02;100.00;97835.16;5117950;57;1139069;-80
2021/12/01 20:15:43;;;;;;;8.47;4.87;;;;;;;6.15;100.00;97836.37;5113035;57;1139104;-79
2021/12/01 20:20:49;;;;;;;13.57;6.97;;;;;;;6.15;100.00;97836.37;5081461;57;1137340;-81
2021/12/01 20:25:55;;;;;;;13.63;6.73;;;;;;;6.21;100.00;97816.56;5034049;57;1139019;-80
2021/12/01 20:31:01;;;;;;;11.50;5.30;;;;;;;6.26;100.00;97802.48;5024852;57;1139086;-84
2021/12/01 20:36:10;;;;;;;13.33;4.70;;;;;;;6.29;100.00;97803.45;4995033;57;1139407;-80
2021/12/01 20:41:17;;;;;;;10.20;4.77;;;;;;;6.34;100.00;97795.94;5024194;57;1139509;-82
2021/12/01 20:57:09;;;;;;;13.07;5.63;;;;;;;6.46;100.00;97782.84;5028788;57;1139845;-81
2021/12/01 21:02:10;;;;;;;9.53;5.40;;;;;;;6.49;100.00;97781.22;5097370;56;1138970;-82
2021/12/01 21:07:16;;;;;;;8.27;4.30;;;;;;;6.52;100.00;97770.89;5073964;56;1137012;-79
2021/12/01 21:12:25;;;;;;;12.73;5.57;;;;;;;6.55;100.00;97765.33;5029372;57;1134903;-77
2021/12/01 21:17:33;;;;;;;8.00;4.27;;;;;;;6.58;100.00;97747.42;5037356;57;1136962;-79
2021/12/01 21:22:40;;;;;;;8.65;4.58;;;;;;;6.61;100.00;97757.61;4979380;57;1135241;-82
2021/12/01 21:27:46;;;;;;;5.80;3.93;;;;;;;6.65;100.00;97751.55;4818196;59;1135514;-75
2021/12/01 21:32:52;;;;;;;8.03;3.60;;;;;;;6.66;100.00;97744.00;4952579;58;1134920;-79
2021/12/01 21:37:58;;;;;;;7.53;4.53;;;;;;;6.70;100.00;97744.02;5080180;57;1134920;-82
2021/12/01 21:43:04;;;;;;;3.73;2.73;;;;;;;6.72;100.00;97735.98;4932022;59;1134869;-81
2021/12/01 21:48:09;;;;;;;6.30;2.70;;;;;;;6.81;100.00;97727.92;4905589;59;1134960;-78
2021/12/01 21:53:16;;;;;;;6.37;3.27;;;;;;;6.84;100.00;97720.22;4844615;60;1135517;-82
2021/12/01 21:58:24;;;;;;;7.63;3.10;;;;;;;6.87;100.00;97715.95;4953292;59;1135345;-80
2021/12/01 22:03:31;;;;;;;4.80;2.30;;;;;;;6.88;100.00;97716.25;4843493;59;1134765;-84
2021/12/01 22:08:38;;;;;;;8.83;3.43;;;;;;;6.86;100.00;97709.88;4849795;59;1135283;-85
2021/12/01 22:13:45;;;;;;;10.77;4.40;;;;;;;6.87;100.00;97704.95;4902954;58;1134905;-80
2021/12/01 22:18:50;;;;;;;11.37;4.50;;;;;;;6.89;100.00;97705.59;4991493;58;1137016;-78
2021/12/01 22:24:07;;;;;;;13.17;5.50;;;;;;;6.91;100.00;97693.59;5027049;57;1137023;-81
2021/12/01 22:29:14;;;;;;;18.83;6.10;;;;;;;6.92;100.00;97669.80;5031956;57;1135492;-83
2021/12/01 22:34:22;;;;;;;4.17;2.37;;;;;;;6.97;100.00;97663.56;5033172;58;1139300;-83
2021/12/01 22:39:28;;;;;;;6.43;2.60;;;;;;;7.03;100.00;97658.94;5030237;57;1143148;-79
2021/12/01 22:44:35;;;;;;;3.93;2.10;;;;;;;7.02;100.00;97642.88;5033721;58;1136981;-82
2021/12/01 22:49:43;;;;;;;8.00;3.33;;;;;;;7.07;100.00;97656.80;4985214;57;1137012;-82
2021/12/01 22:54:49;;;;;;;2.47;1.67;;;;;;;7.13;100.00;97650.89;5034933;57;1137033;-83
2021/12/01 23:00:00;;;;;;;2.87;1.90;;;;;;;7.12;100.00;97631.34;5044052;58;1136494;-81
2021/12/01 23:05:06;;;;;;;3.03;1.83;;;;;;;7.13;100.00;97624.61;5038602;57;1137063;-83
2021/12/01 23:10:12;;;;;;;3.97;2.40;;;;;;;7.15;100.00;97620.50;5030086;57;1137056;-86
2021/12/01 23:15:17;;;;;;;3.90;1.53;;;;;;;7.15;100.00;97615.25;5028143;57;1137155;-75
2021/12/01 23:20:23;;;;;;;7.33;1.90;;;;;;;7.14;100.00;97618.36;4951307;58;1136988;-83
2021/12/01 23:30:55;;;;;;;3.83;1.63;;;;;;;7.11;100.00;97606.87;4953251;59;1137108;-79
2021/12/01 23:36:02;;;;;;;9.03;4.20;;;;;;;7.13;100.00;97596.19;4952242;59;1136956;-84
2021/12/01 23:41:09;;;;;;;2.70;2.10;;;;;;;7.11;100.00;97583.22;4950849;59;1137068;-77
2021/12/01 23:51:39;;;;;;;3.45;1.47;;;;;;;7.08;100.00;97571.72;4951282;59;1137008;-78